Terminal Aerodrome Forecast
Issued by NWS

Home | Current Version | Previous Version | Text Only | Print | Product List | Glossary On
Versions: 1 2 3 4 5 6 7 8 9 10 11 12 13 14 15 16
000
FTUS44 KBMX 032000 AAA
TAFTCL
TAF AMD
KTCL 032054Z 0321/0418 19004KT 6SM HZ BKN025
     FM040600 19006KT 4SM BR OVC004
     FM040800 18005KT 1SM BR OVC002=

USA.gov is the U.S. government's official web portal to all federal, state and local government web resources and services.